sensor_id;sensor_type;location;lat;lon;timestamp;temperature;humidity
61641;HTU21D;62201;49.966;8.342;2022-09-09T00:01:26;16.77;84.84
61641;HTU21D;62201;49.966;8.342;2022-09-09T00:04:11;16.67;84.80
61641;HTU21D;62201;49.966;8.342;2022-09-09T00:06:48;16.58;85.22
61641;HTU21D;62201;49.966;8.342;2022-09-09T00:09:18;16.50;85.03
61641;HTU21D;62201;49.966;8.342;2022-09-09T00:11:58;16.43;85.14
61641;HTU21D;62201;49.966;8.342;2022-09-09T00:14:39;16.40;86.19
61641;HTU21D;62201;49.966;8.342;2022-09-09T00:17:14;16.42;88.22
61641;HTU21D;62201;49.966;8.342;2022-09-09T00:22:18;16.30;87.61
61641;HTU21D;62201;49.966;8.342;2022-09-09T00:24:53;16.25;88.54
61641;HTU21D;62201;49.966;8.342;2022-09-09T00:27:30;16.18;87.82
61641;HTU21D;62201;49.966;8.342;2022-09-09T00:30:18;16.11;87.99
61641;HTU21D;62201;49.966;8.342;2022-09-09T00:32:53;16.02;88.96
61641;HTU21D;62201;49.966;8.342;2022-09-09T00:35:24;16.03;88.46
61641;HTU21D;62201;49.966;8.342;2022-09-09T00:37:53;15.97;88.68
61641;HTU21D;62201;49.966;8.342;2022-09-09T00:40:24;15.88;88.69
61641;HTU21D;62201;49.966;8.342;2022-09-09T00:48:52;15.82;88.92
61641;HTU21D;62201;49.966;8.342;2022-09-09T00:51:35;15.86;88.35
61641;HTU21D;62201;49.966;8.342;2022-09-09T00:59:51;15.91;87.74
61641;HTU21D;62201;49.966;8.342;2022-09-09T01:02:39;15.88;88.19
61641;HTU21D;62201;49.966;8.342;2022-09-09T01:05:13;15.84;88.39
61641;HTU21D;62201;49.966;8.342;2022-09-09T01:07:44;15.80;88.49
61641;HTU21D;62201;49.966;8.342;2022-09-09T01:10:32;15.80;88.90
61641;HTU21D;62201;49.966;8.342;2022-09-09T01:13:04;15.77;88.83
61641;HTU21D;62201;49.966;8.342;2022-09-09T01:15:34;15.83;88.53
61641;HTU21D;62201;49.966;8.342;2022-09-09T01:18:10;15.84;88.47
61641;HTU21D;62201;49.966;8.342;2022-09-09T01:28:29;15.90;87.86
61641;HTU21D;62201;49.966;8.342;2022-09-09T01:30:56;15.87;87.99
61641;HTU21D;62201;49.966;8.342;2022-09-09T01:33:22;15.88;87.95
61641;HTU21D;62201;49.966;8.342;2022-09-09T01:35:55;15.86;88.20
61641;HTU21D;62201;49.966;8.342;2022-09-09T01:38:23;15.85;87.91
61641;HTU21D;62201;49.966;8.342;2022-09-09T01:40:50;15.87;87.97
61641;HTU21D;62201;49.966;8.342;2022-09-09T01:43:19;15.85;87.98
61641;HTU21D;62201;49.966;8.342;2022-09-09T01:45:46;15.87;87.99
61641;HTU21D;62201;49.966;8.342;2022-09-09T01:48:13;15.86;87.95
61641;HTU21D;62201;49.966;8.342;2022-09-09T01:50:39;15.85;87.84
61641;HTU21D;62201;49.966;8.342;2022-09-09T01:53:04;15.82;87.89
61641;HTU21D;62201;49.966;8.342;2022-09-09T01:55:33;15.77;88.15
61641;HTU21D;62201;49.966;8.342;2022-09-09T01:58:16;15.73;88.40
61641;HTU21D;62201;49.966;8.342;2022-09-09T02:00:54;15.65;88.80
61641;HTU21D;62201;49.966;8.342;2022-09-09T02:03:27;15.59;90.53
61641;HTU21D;62201;49.966;8.342;2022-09-09T02:08:46;15.53;90.60
61641;HTU21D;62201;49.966;8.342;2022-09-09T02:11:16;15.45;90.70
61641;HTU21D;62201;49.966;8.342;2022-09-09T02:13:44;15.41;90.60
61641;HTU21D;62201;49.966;8.342;2022-09-09T02:16:23;15.42;90.76
61641;HTU21D;62201;49.966;8.342;2022-09-09T02:21:17;15.48;90.11
61641;HTU21D;62201;49.966;8.342;2022-09-09T02:23:43;15.51;90.09
61641;HTU21D;62201;49.966;8.342;2022-09-09T02:26:13;15.49;90.08
61641;HTU21D;62201;49.966;8.342;2022-09-09T02:28:45;15.51;90.15
61641;HTU21D;62201;49.966;8.342;2022-09-09T02:31:11;15.45;90.19
61641;HTU21D;62201;49.966;8.342;2022-09-09T02:33:42;15.55;90.79
61641;HTU21D;62201;49.966;8.342;2022-09-09T02:36:09;15.58;90.37
61641;HTU21D;62201;49.966;8.342;2022-09-09T02:38:47;15.54;90.25
61641;HTU21D;62201;49.966;8.342;2022-09-09T02:41:25;15.52;90.53
61641;HTU21D;62201;49.966;8.342;2022-09-09T02:43:52;15.51;90.65
61641;HTU21D;62201;49.966;8.342;2022-09-09T02:52:13;15.38;90.66
61641;HTU21D;62201;49.966;8.342;2022-09-09T02:54:40;15.31;91.24
61641;HTU21D;62201;49.966;8.342;2022-09-09T02:59:37;15.21;91.53
61641;HTU21D;62201;49.966;8.342;2022-09-09T03:02:04;15.17;91.55
61641;HTU21D;62201;49.966;8.342;2022-09-09T03:04:30;15.18;91.56
61641;HTU21D;62201;49.966;8.342;2022-09-09T03:06:57;15.18;91.39
61641;HTU21D;62201;49.966;8.342;2022-09-09T03:09:22;15.17;91.29
61641;HTU21D;62201;49.966;8.342;2022-09-09T03:11:48;15.17;91.21
61641;HTU21D;62201;49.966;8.342;2022-09-09T03:14:15;15.19;91.25
61641;HTU21D;62201;49.966;8.342;2022-09-09T03:16:40;15.19;91.18
61641;HTU21D;62201;49.966;8.342;2022-09-09T03:19:08;15.23;91.15
61641;HTU21D;62201;49.966;8.342;2022-09-09T03:21:33;15.24;91.07
61641;HTU21D;62201;49.966;8.342;2022-09-09T03:23:59;15.23;91.05
61641;HTU21D;62201;49.966;8.342;2022-09-09T03:26:25;15.24;91.15
61641;HTU21D;62201;49.966;8.342;2022-09-09T03:28:50;15.27;91.27
61641;HTU21D;62201;49.966;8.342;2022-09-09T03:31:16;15.31;91.24
61641;HTU21D;62201;49.966;8.342;2022-09-09T03:33:43;15.36;91.35
61641;HTU21D;62201;49.966;8.342;2022-09-09T03:36:08;15.42;91.34
61641;HTU21D;62201;49.966;8.342;2022-09-09T03:38:34;15.47;91.15
61641;HTU21D;62201;49.966;8.342;2022-09-09T03:41:00;15.56;90.89
61641;HTU21D;62201;49.966;8.342;2022-09-09T03:43:28;15.55;90.53
61641;HTU21D;62201;49.966;8.342;2022-09-09T03:45:54;15.46;90.67
61641;HTU21D;62201;49.966;8.342;2022-09-09T03:48:23;15.39;91.02
61641;HTU21D;62201;49.966;8.342;2022-09-09T03:50:52;15.34;91.24
61641;HTU21D;62201;49.966;8.342;2022-09-09T03:53:19;15.29;91.23
61641;HTU21D;62201;49.966;8.342;2022-09-09T03:55:51;15.23;91.50
61641;HTU21D;62201;49.966;8.342;2022-09-09T03:58:20;15.21;91.92
61641;HTU21D;62201;49.966;8.342;2022-09-09T04:00:57;15.21;91.81
61641;HTU21D;62201;49.966;8.342;2022-09-09T04:03:23;15.22;92.22
61641;HTU21D;62201;49.966;8.342;2022-09-09T04:05:54;15.28;92.07
61641;HTU21D;62201;49.966;8.342;2022-09-09T04:08:20;15.25;91.81
61641;HTU21D;62201;49.966;8.342;2022-09-09T04:10:47;15.27;92.44
61641;HTU21D;62201;49.966;8.342;2022-09-09T04:13:13;15.26;92.05
61641;HTU21D;62201;49.966;8.342;2022-09-09T04:15:40;15.26;92.08
61641;HTU21D;62201;49.966;8.342;2022-09-09T04:18:05;15.28;92.25
61641;HTU21D;62201;49.966;8.342;2022-09-09T04:20:31;15.36;92.00
61641;HTU21D;62201;49.966;8.342;2022-09-09T04:22:57;15.36;91.87
61641;HTU21D;62201;49.966;8.342;2022-09-09T04:25:23;15.37;91.77
61641;HTU21D;62201;49.966;8.342;2022-09-09T04:27:56;15.43;91.72
61641;HTU21D;62201;49.966;8.342;2022-09-09T04:30:22;15.43;91.56
61641;HTU21D;62201;49.966;8.342;2022-09-09T04:32:48;15.40;91.60
61641;HTU21D;62201;49.966;8.342;2022-09-09T04:35:13;15.39;91.69
61641;HTU21D;62201;49.966;8.342;2022-09-09T04:37:39;15.31;91.64
61641;HTU21D;62201;49.966;8.342;2022-09-09T04:40:05;15.22;91.83
61641;HTU21D;62201;49.966;8.342;2022-09-09T04:42:35;15.23;92.72
61641;HTU21D;62201;49.966;8.342;2022-09-09T04:45:00;15.24;92.44
61641;HTU21D;62201;49.966;8.342;2022-09-09T04:47:26;15.22;93.19
61641;HTU21D;62201;49.966;8.342;2022-09-09T04:49:52;15.18;93.46
61641;HTU21D;62201;49.966;8.342;2022-09-09T04:52:19;15.18;93.29
61641;HTU21D;62201;49.966;8.342;2022-09-09T04:54:45;15.07;93.03
61641;HTU21D;62201;49.966;8.342;2022-09-09T04:57:11;15.00;93.25
61641;HTU21D;62201;49.966;8.342;2022-09-09T04:59:36;15.00;94.14
61641;HTU21D;62201;49.966;8.342;2022-09-09T05:02:03;15.01;94.94
61641;HTU21D;62201;49.966;8.342;2022-09-09T05:04:29;15.00;93.67
61641;HTU21D;62201;49.966;8.342;2022-09-09T05:06:54;15.02;93.45
61641;HTU21D;62201;49.966;8.342;2022-09-09T05:09:20;15.06;93.13
61641;HTU21D;62201;49.966;8.342;2022-09-09T05:11:46;15.10;92.93
61641;HTU21D;62201;49.966;8.342;2022-09-09T05:14:11;15.14;92.78
61641;HTU21D;62201;49.966;8.342;2022-09-09T05:16:37;15.21;92.51
61641;HTU21D;62201;49.966;8.342;2022-09-09T05:19:03;15.31;92.26
61641;HTU21D;62201;49.966;8.342;2022-09-09T05:21:28;15.36;92.16
61641;HTU21D;62201;49.966;8.342;2022-09-09T05:23:56;15.33;91.87
61641;HTU21D;62201;49.966;8.342;2022-09-09T05:26:22;15.30;91.85
61641;HTU21D;62201;49.966;8.342;2022-09-09T05:28:48;15.27;91.79
61641;HTU21D;62201;49.966;8.342;2022-09-09T05:31:14;15.25;91.92
61641;HTU21D;62201;49.966;8.342;2022-09-09T05:33:41;15.29;91.59
61641;HTU21D;62201;49.966;8.342;2022-09-09T05:36:10;15.31;91.47
61641;HTU21D;62201;49.966;8.342;2022-09-09T05:38:38;15.38;91.19
61641;HTU21D;62201;49.966;8.342;2022-09-09T05:41:04;15.39;90.90
61641;HTU21D;62201;49.966;8.342;2022-09-09T05:43:30;15.42;90.75
61641;HTU21D;62201;49.966;8.342;2022-09-09T05:48:35;15.41;90.66
61641;HTU21D;62201;49.966;8.342;2022-09-09T05:51:01;15.46;90.30
61641;HTU21D;62201;49.966;8.342;2022-09-09T05:53:28;15.53;90.28
61641;HTU21D;62201;49.966;8.342;2022-09-09T05:56:01;15.65;89.99
61641;HTU21D;62201;49.966;8.342;2022-09-09T05:58:29;15.81;89.64
61641;HTU21D;62201;49.966;8.342;2022-09-09T06:01:03;15.92;89.10
61641;HTU21D;62201;49.966;8.342;2022-09-09T06:03:29;16.03;88.29
61641;HTU21D;62201;49.966;8.342;2022-09-09T06:06:02;16.12;88.02
61641;HTU21D;62201;49.966;8.342;2022-09-09T06:08:30;16.18;87.87
61641;HTU21D;62201;49.966;8.342;2022-09-09T06:11:01;16.26;87.51
61641;HTU21D;62201;49.966;8.342;2022-09-09T06:13:27;16.37;87.34
61641;HTU21D;62201;49.966;8.342;2022-09-09T06:15:53;16.49;86.82
61641;HTU21D;62201;49.966;8.342;2022-09-09T06:18:18;16.58;85.73
61641;HTU21D;62201;49.966;8.342;2022-09-09T06:20:55;16.70;86.20
61641;HTU21D;62201;49.966;8.342;2022-09-09T06:23:20;16.79;85.74
61641;HTU21D;62201;49.966;8.342;2022-09-09T06:25:46;16.91;84.84
61641;HTU21D;62201;49.966;8.342;2022-09-09T06:28:12;17.05;84.41
61641;HTU21D;62201;49.966;8.342;2022-09-09T06:30:38;17.20;82.48
61641;HTU21D;62201;49.966;8.342;2022-09-09T06:33:05;17.28;82.54
61641;HTU21D;62201;49.966;8.342;2022-09-09T06:35:30;17.34;82.07
61641;HTU21D;62201;49.966;8.342;2022-09-09T06:37:55;17.37;82.07
61641;HTU21D;62201;49.966;8.342;2022-09-09T06:40:21;17.37;81.80
61641;HTU21D;62201;49.966;8.342;2022-09-09T06:42:46;17.39;82.07
61641;HTU21D;62201;49.966;8.342;2022-09-09T06:45:11;17.43;82.06
61641;HTU21D;62201;49.966;8.342;2022-09-09T06:47:37;17.45;81.76
61641;HTU21D;62201;49.966;8.342;2022-09-09T06:50:02;17.58;81.14
61641;HTU21D;62201;49.966;8.342;2022-09-09T06:52:28;17.53;80.32
61641;HTU21D;62201;49.966;8.342;2022-09-09T06:54:53;17.53;80.13
61641;HTU21D;62201;49.966;8.342;2022-09-09T06:57:18;17.56;79.99
61641;HTU21D;62201;49.966;8.342;2022-09-09T06:59:44;17.60;79.89
61641;HTU21D;62201;49.966;8.342;2022-09-09T07:02:09;17.62;79.62
61641;HTU21D;62201;49.966;8.342;2022-09-09T07:04:35;17.61;80.15
61641;HTU21D;62201;49.966;8.342;2022-09-09T07:07:02;17.69;79.91
61641;HTU21D;62201;49.966;8.342;2022-09-09T07:09:27;17.74;79.36
61641;HTU21D;62201;49.966;8.342;2022-09-09T07:11:54;17.78;79.57
61641;HTU21D;62201;49.966;8.342;2022-09-09T07:14:20;17.76;78.73
61641;HTU21D;62201;49.966;8.342;2022-09-09T07:16:46;17.76;79.32
61641;HTU21D;62201;49.966;8.342;2022-09-09T07:19:12;17.83;79.21
61641;HTU21D;62201;49.966;8.342;2022-09-09T07:21:38;18.00;78.20
61641;HTU21D;62201;49.966;8.342;2022-09-09T07:24:05;18.07;77.71
61641;HTU21D;62201;49.966;8.342;2022-09-09T07:26:33;18.04;77.84
61641;HTU21D;62201;49.966;8.342;2022-09-09T07:28:58;18.04;78.13
61641;HTU21D;62201;49.966;8.342;2022-09-09T07:31:26;18.04;77.96
61641;HTU21D;62201;49.966;8.342;2022-09-09T07:33:52;18.05;78.07
61641;HTU21D;62201;49.966;8.342;2022-09-09T07:36:19;18.04;77.86
61641;HTU21D;62201;49.966;8.342;2022-09-09T07:39:12;18.06;77.89
61641;HTU21D;62201;49.966;8.342;2022-09-09T07:41:43;18.10;77.89
61641;HTU21D;62201;49.966;8.342;2022-09-09T07:44:11;18.15;78.01
61641;HTU21D;62201;49.966;8.342;2022-09-09T07:46:38;18.25;77.91
61641;HTU21D;62201;49.966;8.342;2022-09-09T07:49:07;18.26;77.71
61641;HTU21D;62201;49.966;8.342;2022-09-09T07:51:34;18.36;77.02
61641;HTU21D;62201;49.966;8.342;2022-09-09T07:54:05;18.47;76.76
61641;HTU21D;62201;49.966;8.342;2022-09-09T07:56:31;18.53;76.50
61641;HTU21D;62201;49.966;8.342;2022-09-09T07:58:57;18.68;76.06
61641;HTU21D;62201;49.966;8.342;2022-09-09T08:04:01;18.96;75.15
61641;HTU21D;62201;49.966;8.342;2022-09-09T08:06:28;19.01;75.02
61641;HTU21D;62201;49.966;8.342;2022-09-09T08:08:54;19.27;74.54
61641;HTU21D;62201;49.966;8.342;2022-09-09T08:11:21;19.61;72.64
61641;HTU21D;62201;49.966;8.342;2022-09-09T08:13:48;19.97;71.61
61641;HTU21D;62201;49.966;8.342;2022-09-09T08:16:18;19.81;71.58
61641;HTU21D;62201;49.966;8.342;2022-09-09T08:18:43;19.52;72.61
61641;HTU21D;62201;49.966;8.342;2022-09-09T08:21:14;19.43;72.29
61641;HTU21D;62201;49.966;8.342;2022-09-09T08:23:41;19.31;72.49
61641;HTU21D;62201;49.966;8.342;2022-09-09T08:26:18;19.31;71.75
61641;HTU21D;62201;49.966;8.342;2022-09-09T08:28:50;19.28;72.39
61641;HTU21D;62201;49.966;8.342;2022-09-09T08:31:21;19.40;72.09
61641;HTU21D;62201;49.966;8.342;2022-09-09T08:33:47;19.46;71.40
61641;HTU21D;62201;49.966;8.342;2022-09-09T08:36:21;19.52;71.53
61641;HTU21D;62201;49.966;8.342;2022-09-09T08:38:48;19.42;70.33
61641;HTU21D;62201;49.966;8.342;2022-09-09T08:41:19;19.45;70.49
61641;HTU21D;62201;49.966;8.342;2022-09-09T08:43:49;19.48;70.29
61641;HTU21D;62201;49.966;8.342;2022-09-09T08:46:34;19.47;69.98
61641;HTU21D;62201;49.966;8.342;2022-09-09T08:52:01;19.37;70.39
61641;HTU21D;62201;49.966;8.342;2022-09-09T08:54:32;19.29;70.88
61641;HTU21D;62201;49.966;8.342;2022-09-09T08:56:58;19.22;71.48
61641;HTU21D;62201;49.966;8.342;2022-09-09T08:59:23;19.15;72.00
61641;HTU21D;62201;49.966;8.342;2022-09-09T09:12:23;19.13;70.99
61641;HTU21D;62201;49.966;8.342;2022-09-09T09:14:49;19.11;70.35
61641;HTU21D;62201;49.966;8.342;2022-09-09T09:18:08;19.10;69.64
61641;HTU21D;62201;49.966;8.342;2022-09-09T09:20:14;19.13;69.96
61641;HTU21D;62201;49.966;8.342;2022-09-09T09:22:49;19.50;67.29
61641;HTU21D;62201;49.966;8.342;2022-09-09T09:25:19;20.45;65.08
61641;HTU21D;62201;49.966;8.342;2022-09-09T09:30:40;21.45;61.75
61641;HTU21D;62201;49.966;8.342;2022-09-09T09:36:07;22.60;56.47
61641;HTU21D;62201;49.966;8.342;2022-09-09T09:38:34;23.23;54.86
61641;HTU21D;62201;49.966;8.342;2022-09-09T09:41:00;23.65;54.54
61641;HTU21D;62201;49.966;8.342;2022-09-09T09:43:28;23.22;55.18
61641;HTU21D;62201;49.966;8.342;2022-09-09T09:45:54;22.58;56.64
61641;HTU21D;62201;49.966;8.342;2022-09-09T09:48:20;22.68;54.39
61641;HTU21D;62201;49.966;8.342;2022-09-09T09:50:57;22.63;53.95
61641;HTU21D;62201;49.966;8.342;2022-09-09T09:53:29;21.95;55.88
61641;HTU21D;62201;49.966;8.342;2022-09-09T09:56:00;21.75;56.80
61641;HTU21D;62201;49.966;8.342;2022-09-09T09:58:29;21.78;56.95
61641;HTU21D;62201;49.966;8.342;2022-09-09T10:00:56;21.70;56.97
61641;HTU21D;62201;49.966;8.342;2022-09-09T10:03:31;22.16;55.33
61641;HTU21D;62201;49.966;8.342;2022-09-09T10:05:57;22.92;53.92
61641;HTU21D;62201;49.966;8.342;2022-09-09T10:08:24;23.56;52.20
61641;HTU21D;62201;49.966;8.342;2022-09-09T10:11:23;23.00;53.23
61641;HTU21D;62201;49.966;8.342;2022-09-09T10:14:22;22.64;54.76
61641;HTU21D;62201;49.966;8.342;2022-09-09T10:17:20;22.37;53.34
61641;HTU21D;62201;49.966;8.342;2022-09-09T10:22:35;21.68;54.05
61641;HTU21D;62201;49.966;8.342;2022-09-09T10:30:18;21.93;55.18
61641;HTU21D;62201;49.966;8.342;2022-09-09T10:33:04;21.67;56.26
61641;HTU21D;62201;49.966;8.342;2022-09-09T10:36:29;21.58;57.13
61641;HTU21D;62201;49.966;8.342;2022-09-09T10:38:42;21.94;56.20
61641;HTU21D;62201;49.966;8.342;2022-09-09T10:48:25;22.86;52.30
61641;HTU21D;62201;49.966;8.342;2022-09-09T10:55:39;22.27;53.49
61641;HTU21D;62201;49.966;8.342;2022-09-09T10:58:12;22.03;53.94
61641;HTU21D;62201;49.966;8.342;2022-09-09T11:00:42;21.82;54.55
61641;HTU21D;62201;49.966;8.342;2022-09-09T11:03:22;21.65;55.79
61641;HTU21D;62201;49.966;8.342;2022-09-09T11:05:54;23.13;51.76
61641;HTU21D;62201;49.966;8.342;2022-09-09T11:08:28;24.57;48.31
61641;HTU21D;62201;49.966;8.342;2022-09-09T11:13:46;24.84;47.11
61641;HTU21D;62201;49.966;8.342;2022-09-09T11:16:34;24.73;45.89
61641;HTU21D;62201;49.966;8.342;2022-09-09T11:21:48;23.40;49.82
61641;HTU21D;62201;49.966;8.342;2022-09-09T11:26:57;22.52;52.47
61641;HTU21D;62201;49.966;8.342;2022-09-09T11:38:19;22.02;53.52
61641;HTU21D;62201;49.966;8.342;2022-09-09T11:40:47;21.92;54.17
61641;HTU21D;62201;49.966;8.342;2022-09-09T11:43:44;21.72;54.43
61641;HTU21D;62201;49.966;8.342;2022-09-09T11:46:12;21.63;54.55
61641;HTU21D;62201;49.966;8.342;2022-09-09T11:48:42;21.69;54.81
61641;HTU21D;62201;49.966;8.342;2022-09-09T11:53:52;21.69;54.96
61641;HTU21D;62201;49.966;8.342;2022-09-09T11:56:42;21.52;55.14
61641;HTU21D;62201;49.966;8.342;2022-09-09T11:59:31;21.35;56.55
61641;HTU21D;62201;49.966;8.342;2022-09-09T12:02:13;21.19;56.94
61641;HTU21D;62201;49.966;8.342;2022-09-09T12:04:47;21.15;58.00
61641;HTU21D;62201;49.966;8.342;2022-09-09T12:07:38;21.05;57.87
61641;HTU21D;62201;49.966;8.342;2022-09-09T12:12:35;20.62;61.99
61641;HTU21D;62201;49.966;8.342;2022-09-09T12:17:45;19.69;68.54
61641;HTU21D;62201;49.966;8.342;2022-09-09T12:20:19;19.46;68.79
61641;HTU21D;62201;49.966;8.342;2022-09-09T12:23:12;19.15;68.99
61641;HTU21D;62201;49.966;8.342;2022-09-09T12:26:07;19.00;69.70
61641;HTU21D;62201;49.966;8.342;2022-09-09T12:29:14;18.97;70.02
61641;HTU21D;62201;49.966;8.342;2022-09-09T12:36:55;18.92;71.43
61641;HTU21D;62201;49.966;8.342;2022-09-09T12:39:31;18.85;72.32
61641;HTU21D;62201;49.966;8.342;2022-09-09T12:41:59;18.63;74.26
61641;HTU21D;62201;49.966;8.342;2022-09-09T12:44:25;18.40;76.02
61641;HTU21D;62201;49.966;8.342;2022-09-09T12:46:54;18.20;74.60
61641;HTU21D;62201;49.966;8.342;2022-09-09T12:49:33;18.02;71.88
61641;HTU21D;62201;49.966;8.342;2022-09-09T12:52:08;17.84;71.13
61641;HTU21D;62201;49.966;8.342;2022-09-09T12:54:44;17.73;71.61
61641;HTU21D;62201;49.966;8.342;2022-09-09T12:57:12;17.75;71.23
61641;HTU21D;62201;49.966;8.342;2022-09-09T12:59:40;17.87;72.97
61641;HTU21D;62201;49.966;8.342;2022-09-09T13:02:17;18.37;72.10
61641;HTU21D;62201;49.966;8.342;2022-09-09T13:04:43;18.67;72.57
61641;HTU21D;62201;49.966;8.342;2022-09-09T13:07:11;18.86;71.11
61641;HTU21D;62201;49.966;8.342;2022-09-09T13:09:37;19.08;69.76
61641;HTU21D;62201;49.966;8.342;2022-09-09T13:12:04;19.13;68.50
61641;HTU21D;62201;49.966;8.342;2022-09-09T13:14:35;19.37;67.24
61641;HTU21D;62201;49.966;8.342;2022-09-09T13:17:06;19.80;64.23
61641;HTU21D;62201;49.966;8.342;2022-09-09T13:19:44;20.39;61.64
61641;HTU21D;62201;49.966;8.342;2022-09-09T13:22:12;21.04;59.14
61641;HTU21D;62201;49.966;8.342;2022-09-09T13:24:38;21.37;56.34
61641;HTU21D;62201;49.966;8.342;2022-09-09T13:27:23;21.68;56.16
61641;HTU21D;62201;49.966;8.342;2022-09-09T13:29:53;22.12;54.62
61641;HTU21D;62201;49.966;8.342;2022-09-09T13:32:22;22.12;54.97
61641;HTU21D;62201;49.966;8.342;2022-09-09T13:34:56;21.91;55.00
61641;HTU21D;62201;49.966;8.342;2022-09-09T13:37:34;21.70;55.93
61641;HTU21D;62201;49.966;8.342;2022-09-09T13:40:01;21.20;56.79
61641;HTU21D;62201;49.966;8.342;2022-09-09T13:42:29;20.86;58.10
61641;HTU21D;62201;49.966;8.342;2022-09-09T13:44:56;20.58;59.66
61641;HTU21D;62201;49.966;8.342;2022-09-09T13:47:31;20.48;59.77
61641;HTU21D;62201;49.966;8.342;2022-09-09T13:49:57;20.32;60.71
61641;HTU21D;62201;49.966;8.342;2022-09-09T13:52:23;20.25;61.58
61641;HTU21D;62201;49.966;8.342;2022-09-09T13:54:50;20.15;61.59
61641;HTU21D;62201;49.966;8.342;2022-09-09T13:57:21;20.19;61.83
61641;HTU21D;62201;49.966;8.342;2022-09-09T13:59:47;20.21;62.52
61641;HTU21D;62201;49.966;8.342;2022-09-09T14:02:14;20.29;61.56
61641;HTU21D;62201;49.966;8.342;2022-09-09T14:04:39;20.30;61.90
61641;HTU21D;62201;49.966;8.342;2022-09-09T14:07:11;20.33;61.32
61641;HTU21D;62201;49.966;8.342;2022-09-09T14:09:36;20.36;61.41
61641;HTU21D;62201;49.966;8.342;2022-09-09T14:12:02;20.33;61.83
61641;HTU21D;62201;49.966;8.342;2022-09-09T14:14:27;20.33;62.12
61641;HTU21D;62201;49.966;8.342;2022-09-09T14:16:53;20.41;62.01
61641;HTU21D;62201;49.966;8.342;2022-09-09T14:19:18;20.37;62.24
61641;HTU21D;62201;49.966;8.342;2022-09-09T14:21:44;20.37;62.83
61641;HTU21D;62201;49.966;8.342;2022-09-09T14:24:09;20.36;62.78
61641;HTU21D;62201;49.966;8.342;2022-09-09T14:26:34;20.32;63.13
61641;HTU21D;62201;49.966;8.342;2022-09-09T14:29:00;20.33;63.44
61641;HTU21D;62201;49.966;8.342;2022-09-09T14:31:26;20.26;64.01
61641;HTU21D;62201;49.966;8.342;2022-09-09T14:33:52;20.18;64.38
61641;HTU21D;62201;49.966;8.342;2022-09-09T14:36:18;20.13;65.01
61641;HTU21D;62201;49.966;8.342;2022-09-09T14:38:43;20.10;64.92
61641;HTU21D;62201;49.966;8.342;2022-09-09T14:41:10;20.03;65.02
61641;HTU21D;62201;49.966;8.342;2022-09-09T14:43:38;20.01;65.50
61641;HTU21D;62201;49.966;8.342;2022-09-09T14:46:12;19.97;65.77
61641;HTU21D;62201;49.966;8.342;2022-09-09T14:48:37;19.89;66.23
61641;HTU21D;62201;49.966;8.342;2022-09-09T14:51:11;19.87;67.52
61641;HTU21D;62201;49.966;8.342;2022-09-09T14:53:39;19.89;67.55
61641;HTU21D;62201;49.966;8.342;2022-09-09T14:56:11;19.95;66.57
61641;HTU21D;62201;49.966;8.342;2022-09-09T14:58:37;19.98;67.66
61641;HTU21D;62201;49.966;8.342;2022-09-09T15:01:12;19.87;69.52
61641;HTU21D;62201;49.966;8.342;2022-09-09T15:03:39;19.74;70.77
61641;HTU21D;62201;49.966;8.342;2022-09-09T15:06:08;19.96;70.32
61641;HTU21D;62201;49.966;8.342;2022-09-09T15:08:38;20.04;70.16
61641;HTU21D;62201;49.966;8.342;2022-09-09T15:11:05;20.18;70.03
61641;HTU21D;62201;49.966;8.342;2022-09-09T15:13:33;20.31;69.78
61641;HTU21D;62201;49.966;8.342;2022-09-09T15:16:12;20.35;69.48
61641;HTU21D;62201;49.966;8.342;2022-09-09T15:18:37;20.51;69.89
61641;HTU21D;62201;49.966;8.342;2022-09-09T15:21:05;20.55;69.36
61641;HTU21D;62201;49.966;8.342;2022-09-09T15:23:32;20.78;68.68
61641;HTU21D;62201;49.966;8.342;2022-09-09T15:25:57;21.78;66.25
61641;HTU21D;62201;49.966;8.342;2022-09-09T15:28:23;22.34;62.14
61641;HTU21D;62201;49.966;8.342;2022-09-09T15:30:49;22.10;63.19
61641;HTU21D;62201;49.966;8.342;2022-09-09T15:33:15;21.93;61.25
61641;HTU21D;62201;49.966;8.342;2022-09-09T15:35:41;21.64;62.82
61641;HTU21D;62201;49.966;8.342;2022-09-09T15:38:06;21.33;62.21
61641;HTU21D;62201;49.966;8.342;2022-09-09T15:40:31;21.08;63.70
61641;HTU21D;62201;49.966;8.342;2022-09-09T15:43:00;20.86;64.19
61641;HTU21D;62201;49.966;8.342;2022-09-09T15:45:26;20.72;64.49
61641;HTU21D;62201;49.966;8.342;2022-09-09T15:47:52;20.60;64.50
61641;HTU21D;62201;49.966;8.342;2022-09-09T15:50:17;20.42;64.02
61641;HTU21D;62201;49.966;8.342;2022-09-09T15:52:43;20.29;65.06
61641;HTU21D;62201;49.966;8.342;2022-09-09T15:55:08;20.19;65.34
61641;HTU21D;62201;49.966;8.342;2022-09-09T15:57:34;20.12;66.55
61641;HTU21D;62201;49.966;8.342;2022-09-09T16:00:00;19.94;66.62
61641;HTU21D;62201;49.966;8.342;2022-09-09T16:02:25;19.82;67.56
61641;HTU21D;62201;49.966;8.342;2022-09-09T16:04:51;19.74;67.75
61641;HTU21D;62201;49.966;8.342;2022-09-09T16:07:16;19.68;67.41
61641;HTU21D;62201;49.966;8.342;2022-09-09T16:09:42;19.63;67.17
61641;HTU21D;62201;49.966;8.342;2022-09-09T16:12:09;19.59;67.27
61641;HTU21D;62201;49.966;8.342;2022-09-09T16:14:38;19.57;67.45
61641;HTU21D;62201;49.966;8.342;2022-09-09T16:17:05;19.56;67.46
61641;HTU21D;62201;49.966;8.342;2022-09-09T16:19:31;19.55;67.66
61641;HTU21D;62201;49.966;8.342;2022-09-09T16:21:57;19.53;67.81
61641;HTU21D;62201;49.966;8.342;2022-09-09T16:24:23;19.51;67.74
61641;HTU21D;62201;49.966;8.342;2022-09-09T16:26:51;19.50;67.73
61641;HTU21D;62201;49.966;8.342;2022-09-09T16:29:17;19.44;68.25
61641;HTU21D;62201;49.966;8.342;2022-09-09T16:31:44;19.39;68.84
61641;HTU21D;62201;49.966;8.342;2022-09-09T16:34:10;19.36;69.90
61641;HTU21D;62201;49.966;8.342;2022-09-09T16:36:38;19.29;70.00
61641;HTU21D;62201;49.966;8.342;2022-09-09T16:39:09;19.23;70.81
61641;HTU21D;62201;49.966;8.342;2022-09-09T16:41:36;19.17;70.41
61641;HTU21D;62201;49.966;8.342;2022-09-09T16:44:04;19.12;70.64
61641;HTU21D;62201;49.966;8.342;2022-09-09T16:46:31;19.12;70.74
61641;HTU21D;62201;49.966;8.342;2022-09-09T16:48:59;19.10;71.16
61641;HTU21D;62201;49.966;8.342;2022-09-09T16:51:27;19.09;70.83
61641;HTU21D;62201;49.966;8.342;2022-09-09T16:53:53;19.07;71.03
61641;HTU21D;62201;49.966;8.342;2022-09-09T16:56:24;19.09;71.10
61641;HTU21D;62201;49.966;8.342;2022-09-09T16:58:57;19.08;70.93
61641;HTU21D;62201;49.966;8.342;2022-09-09T17:01:27;19.07;70.68
61641;HTU21D;62201;49.966;8.342;2022-09-09T17:03:57;19.05;70.75
61641;HTU21D;62201;49.966;8.342;2022-09-09T17:06:23;19.03;70.50
61641;HTU21D;62201;49.966;8.342;2022-09-09T17:08:57;19.03;70.77
61641;HTU21D;62201;49.966;8.342;2022-09-09T17:11:22;18.99;71.29
61641;HTU21D;62201;49.966;8.342;2022-09-09T17:13:49;18.82;73.35
61641;HTU21D;62201;49.966;8.342;2022-09-09T17:16:17;18.48;73.70
61641;HTU21D;62201;49.966;8.342;2022-09-09T17:18:43;18.17;76.14
61641;HTU21D;62201;49.966;8.342;2022-09-09T17:21:12;17.88;78.31